• Join FlightAware (Why Join?)
  • Login
  • US Flag 
Trick or treat! (Boo!!) 
03:14AM EDT


 

Airport Tracker/Info


-or-


 

Live Flight TrackerFlight Track Log ✈ UAE40 ✈ 08-May-2013 ✈ EGBB / BHX - OMDB / DXB

Flight Track Log - Related Links

Times and Time Zones

All times are in EDT time to prevent confusion due to time zone crossing. See the UAE40 flight status page for this flight to view local times or setup timezone preferences in your user account.

Time Position Orientation Groundspeed Altitude Reporting Facility
EDT Latitude Longitude Course Direction KTS MPH feet Rate Location/Type
09:24AM 52.4340 -1.7260 145° Southeast 178 205 1,800  Level FlightAware
09:24AM 52.4276 -1.7178 148° Southeast 186 214 700 -2,280 Descending FlightAware UK
09:25AM 52.4191 -1.7091 145° Southeast 190 219 1,200 7,080 Climbing FlightAware UK
09:25AM 52.4210 -1.7130 145° Southeast 166 191 2,600 6,300 Climbing FlightAware
09:25AM 52.4100 -1.7120 177° South 166 191 3,200  Climbing FlightAware
09:25AM 52.3892 -1.7072 177° South 196 226 2,600 -720 Descending FlightAware UK
09:26AM 52.3765 -1.6877 137° Southeast 220 253 2,800 4,680 Climbing FlightAware UK
09:26AM 52.3770 -1.6890 137° Southeast 228 262 4,400 5,400 Climbing FlightAware
09:26AM 52.3710 -1.6650 112° Southeast 253 291 4,600 1,440 Climbing FlightAware
09:26AM 52.3710 -1.6400 90° East 284 327 5,000 300 Climbing FlightAware
09:27AM 52.3824 -1.5629 90° East 272 313 4,800 2,100 Descending FlightAware UK
09:27AM 52.3820 -1.5640 90° East 297 342 6,400 3,600 Climbing FlightAware
09:27AM 52.3931 -1.4962 90° East 280 322 6,600 4,380 Climbing FlightAware UK
09:27AM 52.3960 -1.4790 90° East 305 351 8,600 6,960 Climbing FlightAware
09:27AM 52.4023 -1.4445 73° East 309 356 9,400 540 Climbing FlightAware ADS-B
09:28AM 52.4098 -1.4019 73° East 294 338 8,900 2,760 Descending FlightAware UK
09:28AM 52.4145 -1.3760 73° East 323 372 10,800 3,660 Climbing FlightAware ADS-B
09:28AM 52.4279 -1.2995 74° East 365 420 11,500 2,160 Climbing FlightAware ADS-B
09:29AM 52.4418 -1.2181 74° East 375 432 13,000 1,080 Climbing FlightAware ADS-B
09:29AM 52.4531 -1.1502 74° East 362 417 12,500 2,280 Descending FlightAware UK
09:29AM 52.4561 -1.1311 74° East 394 453 14,200 1,980 Climbing FlightAware ADS-B
09:30AM 52.4643 -1.0800 74° East 380 437 13,300 2,100 Descending FlightAware UK
09:30AM 52.4707 -1.0398 74° East 415 478 15,300 5,520 Climbing FlightAware ADS-B
09:30AM 52.4746 -1.0031 80° East 418 481 15,700 -660 Climbing FlightAware ADS-B
09:30AM 52.4756 -0.9499 80° East 402 463 15,000 2,700 Descending FlightAware UK
09:31AM 52.4745 -0.9044 80° East 423 487 17,100 5,580 Climbing FlightAware ADS-B
09:31AM 52.4701 -0.8538 98° East 422 486 17,900 2,700 Climbing FlightAware ADS-B
09:31AM 52.4583 -0.7586 101° East 429 494 19,200 600 Climbing FlightAware ADS-B
09:32AM 52.4512 -0.7021 101° East 424 488 18,400 2,520 Descending FlightAware UK
09:32AM 52.4451 -0.6535 101° East 436 502 20,600 4,260 Climbing FlightAware ADS-B
09:33AM 52.4324 -0.5545 102° East 443 510 21,700 2,160 Climbing FlightAware ADS-B
09:33AM 52.4194 -0.4537 102° East 453 521 22,800 2,220 Climbing FlightAware ADS-B
09:34AM 52.4039 -0.3332 102° East 458 527 24,200 2,160 Climbing FlightAware ADS-B
09:34AM 52.3896 -0.2241 102° East 465 535 25,300 480 Climbing FlightAware ADS-B
09:35AM 52.3757 -0.1184 102° East 464 534 24,700 1,740 Descending FlightAware UK
09:35AM 52.3725 -0.0939 102° East 472 543 26,400 4,500 Climbing FlightAware ADS-B
09:35AM 52.3618 -0.0057 101° East 481 554 27,100 1,800 Climbing FlightAware ADS-B
09:36AM 52.3551 0.1054 96° East 485 558 28,100 1,800 Climbing FlightAware ADS-B
09:36AM 52.3544 0.1748 91° East 492 566 28,600 60 Climbing FlightAware ADS-B
09:37AM 52.3574 0.3431 91° East 488 562 28,200 1,500 Descending FlightAware UK
09:37AM 52.3580 0.3610 91° East 501 577 29,900 4,320 Climbing FlightAware
09:38AM 52.3600 0.5130 89° East 491 565 31,600 2,400 Climbing FlightAware
09:38AM 52.3605 0.5416 88° East 492 566 31,800 -1,740 Climbing FlightAware ADS-B
09:38AM 52.3619 0.6355 88° East 482 555 30,700 1,260 Descending FlightAware UK
09:38AM 52.3623 0.6639 88° East 495 570 32,500 1,500 Climbing FlightAware ADS-B
09:39AM 52.3640 0.7698 88° East 478 550 31,600 1,020 Descending FlightAware UK
09:39AM 52.3650 0.8250 88° East 500 575 33,300 1,260 Climbing FlightAware
09:39AM 52.3660 0.9286 88° East 482 555 32,500 1,500 Descending FlightAware UK
09:40AM 52.3660 0.9740 88° East 500 575 34,300 960 Climbing FlightAware
09:40AM 52.3677 1.0654 88° East 480 552 33,100 -1,440 Descending FlightAware UK
09:40AM 52.3685 1.1338 89° East 482 555 33,400 4,740 Climbing FlightAware UK
09:40AM 52.3690 1.1500 89° East 505 581 35,000 120 Climbing FlightAware
09:41AM 52.3701 1.2936 89° East 482 555 33,500  Descending FlightAware UK
09:41AM 52.3700 1.3020 89° East 504 580 35,000  Climbing FlightAware
09:41AM 52.3711 1.3848 89° East 482 555 33,500  Descending FlightAware UK
09:42AM 52.3720 1.4640 89° East 503 579 35,000  Climbing FlightAware
09:42AM 52.3724 1.5450 89° East 482 555 33,500 -2,580 Descending FlightAware UK
09:42AM 52.3729 1.6133 89° East 482 555 33,500 3,900 Level FlightAware UK
09:42AM 52.3730 1.6160 89° East 502 578 35,000  Climbing FlightAware
09:43AM 52.3736 1.7050 89° East 482 555 33,500  Descending FlightAware UK
09:43AM 52.3740 1.7520 89° East 502 578 35,000  Climbing FlightAware
09:43AM 52.3743 1.8413 89° East 484 557 33,500  Descending FlightAware UK
09:44AM 52.3750 1.9250 89° East 501 577 35,000  Climbing FlightAware
09:44AM 52.3751 2.0454 89° East 482 555 33,500  Descending FlightAware UK
09:45AM 52.3740 2.0850 89° East 500 575 35,000  Climbing FlightAware
09:45AM 52.3714 2.1810 89° East 482 555 33,500 -2,400 Descending FlightAware UK
09:45AM 52.3689 2.2485 94° East 484 557 33,500 3,600 Level FlightAware UK
09:45AM 52.3680 2.2650 94° East 497 572 35,000  Climbing FlightAware
09:46AM 52.3644 2.3382 94° East 480 552 33,500 -2,580 Descending FlightAware UK
09:46AM 52.3606 2.4054 95° East 480 552 33,500 3,900 Level FlightAware UK
09:46AM 52.3600 2.4130 95° East 497 572 35,000  Climbing FlightAware
09:46AM 52.3551 2.4958 95° East 482 555 33,500  Descending FlightAware UK
09:47AM 52.3500 2.5830 95° East 497 572 35,000  Climbing FlightAware
09:47AM 52.3453 2.6524 95° East 482 555 33,500  Descending FlightAware UK
09:47AM 52.3400 2.7300 95° East 496 571 35,000 1,380 Climbing FlightAware
09:48AM 52.3310 2.8810 96° East 495 570 35,000 -1,380 Level FlightAware
09:48AM 52.3239 2.9870 96° East 480 552 33,500  Descending FlightAware UK
09:49AM 52.3200 3.0420 96° East 495 570 35,000  Climbing FlightAware
09:49AM 52.3123 3.1651 96° East 480 552 33,500  Descending FlightAware UK
09:49AM 52.3110 3.1880 96° East 495 570 35,000  Climbing FlightAware
09:50AM 52.3040 3.2987 96° East 480 552 33,500  Descending FlightAware UK
09:50AM 52.3010 3.3410 96° East 495 570 35,000  Climbing FlightAware
09:50AM 52.2965 3.4108 96° East 480 552 33,500 -2,280 Descending FlightAware UK
09:51AM 52.2904 3.5002 96° East 480 552 33,500 3,060 Level FlightAware UK
09:51AM 52.2900 3.5060 96° East 499 574 35,000  Climbing FlightAware
09:51AM 52.2842 3.5898 96° East 480 552 33,500  Descending FlightAware UK
09:52AM 52.2800 3.6470 96° East 500 575 35,000  Climbing FlightAware
09:52AM 52.2751 3.7244 96° East 482 555 33,500 -2,760 Descending FlightAware UK
09:52AM 52.2703 3.7917 97° East 482 555 33,500 3,000 Level FlightAware UK
09:52AM 52.2670 3.8310 97° East 499 574 35,000  Climbing FlightAware
09:53AM 52.2627 3.9040 97° East 482 555 33,500  Descending FlightAware UK
09:53AM 52.2570 3.9790 97° East 499 574 35,000  Climbing FlightAware
09:53AM 52.2512 4.0607 97° East 480 552 33,500  Descending FlightAware UK
09:54AM 52.2450 4.1430 97° East 500 575 35,000  Climbing FlightAware
09:54AM 52.2350 4.2846 97° East 482 555 33,500  Descending FlightAware UK
09:54AM 52.2340 4.2920 97° East 498 573 35,000  Climbing FlightAware
09:55AM 52.2229 4.4409 97° East 482 555 33,500  Descending FlightAware UK
09:55AM 52.2220 4.4440 97° East 497 572 35,000  Climbing FlightAware
09:55AM 52.2161 4.5299 97° East 480 552 33,500 -2,340 Descending FlightAware UK
09:56AM 52.2110 4.5974 97° East 480 552 33,500 3,720 Level FlightAware UK
09:56AM 52.2100 4.6120 97° East 497 572 35,000  Climbing FlightAware
09:56AM 52.2044 4.6864 97° East 482 555 33,500 -2,520 Descending FlightAware UK
09:56AM 52.1995 4.7532 97° East 480 552 33,500 4,080 Level FlightAware UK
09:56AM 52.1990 4.7530 97° East 496 571 35,000 1,800 Climbing FlightAware
09:57AM 52.1860 4.9190 97° East 496 571 35,000  Level FlightAware
09:58AM 52.1750 5.0610 97° East 496 571 35,000  Level FlightAware
09:59AM 52.1660 5.2100 96° East 495 570 35,000 -1,140 Level FlightAware
09:59AM 52.1523 5.3734 96° East 480 552 33,500  Descending FlightAware UK
09:59AM 52.1530 5.3870 96° East 496 571 35,000 1,920 Climbing FlightAware
10:00AM 52.1440 5.5300 96° East 495 570 35,000  Level FlightAware
10:01AM 52.1330 5.6800 97° East 495 570 35,000 -1,620 Level FlightAware
10:01AM 52.1264 5.7513 97° East 480 552 33,500 -2,700 Descending FlightAware UK
10:01AM 52.1212 5.8181 97° East 480 552 33,500 3,060 Level FlightAware UK
10:01AM 52.1160 5.8510 97° East 495 570 35,000 1,740 Climbing FlightAware
10:02AM 52.0990 5.9940 101° East 494 568 35,000  Level FlightAware
10:03AM 52.0790 6.1600 101° East 494 568 35,000  Level FlightAware
10:03AM 52.0620 6.3060 101° East 495 570 35,000  Level FlightAware
10:04AM 52.0440 6.4480 102° East 495 570 35,000  Level FlightAware
10:05AM 52.0240 6.6100 101° East 495 570 35,000  Level FlightAware
10:06AM 52.0050 6.7570 102° East 497 572 35,000  Level FlightAware
10:06AM 51.9840 6.9240 101° East 497 572 35,000  Level FlightAware
10:07AM 51.9650 7.0690 102° East 496 571 35,000  Level FlightAware
10:08AM 51.9470 7.2090 102° East 495 570 35,000  Level FlightAware
10:08AM 51.9260 7.3700 102° East 496 571 35,000  Level FlightAware
10:09AM 51.9060 7.5180 102° East 496 571 35,000  Level FlightAware
10:10AM 51.8790 7.7170 102° East 494 568 35,000  Level FlightAware
10:11AM 51.8580 7.8720 102° East 490 564 35,000  Level FlightAware
10:11AM 51.8380 8.0180 102° East 491 565 35,000  Level FlightAware
10:12AM 51.8200 8.1460 103° East 491 565 35,000  Level FlightAware
10:13AM 51.7960 8.3190 103° East 491 565 35,000  Level FlightAware
10:13AM 51.7760 8.4630 103° East 492 566 35,000  Level FlightAware
10:14AM 51.7560 8.5980 103° East 491 565 35,000  Level FlightAware
10:15AM 51.7310 8.7620 104° East 490 564 35,000  Level FlightAware
10:16AM 51.7090 8.9230 102° East 489 563 35,000  Level FlightAware
10:16AM 51.6880 9.0660 103° East 491 565 35,000  Level FlightAware
10:17AM 51.6650 9.2250 103° East 489 563 35,000  Level FlightAware
10:18AM 51.6440 9.3620 104° East 492 566 35,000  Level FlightAware
10:18AM 51.6210 9.5100 104° East 492 566 35,000  Level FlightAware
10:19AM 51.5980 9.6630 104° East 491 565 35,000  Level FlightAware
10:20AM 51.5750 9.8080 104° East 489 563 35,000  Level FlightAware
10:20AM 51.5530 9.9530 104° East 490 564 35,000  Level FlightAware
10:21AM 51.5270 10.1150 104° East 491 565 35,000  Level FlightAware
10:22AM 51.5040 10.2610 104° East 493 567 35,000  Level FlightAware
10:23AM 51.4820 10.3990 104° East 491 565 35,000  Level FlightAware
10:23AM 51.4550 10.5630 105° East 491 565 35,000  Level FlightAware
10:24AM 51.4320 10.7030 105° East 491 565 35,000  Level FlightAware
10:25AM 51.4080 10.8520 104° East 491 565 35,000  Level FlightAware
10:25AM 51.3840 10.9960 105° East 489 563 35,000  Level FlightAware
10:26AM 51.3610 11.1340 105° East 488 562 35,000  Level FlightAware
10:27AM 51.3350 11.2870 105° East 486 559 35,000  Level FlightAware
10:27AM 51.3100 11.4340 105° East 487 560 35,000  Level FlightAware
10:28AM 51.2840 11.5860 105° East 486 559 35,000  Level FlightAware
10:29AM 51.2600 11.7230 106° East 486 559 35,000  Level FlightAware
10:30AM 51.2320 11.8830 106° East 489 563 35,000  Level FlightAware
10:30AM 51.2070 12.0230 106° East 488 562 35,000  Level FlightAware
10:31AM 51.1830 12.1580 106° East 487 560 35,000  Level FlightAware
10:32AM 51.1560 12.3090 106° East 487 560 35,000  Level FlightAware
10:32AM 51.1310 12.4490 106° East 487 560 35,000  Level FlightAware
10:33AM 51.1030 12.6040 106° East 484 557 35,000  Level FlightAware
10:34AM 51.0780 12.7420 106° East 483 556 35,000  Level FlightAware
10:34AM 51.0520 12.8790 107° East 481 554 35,000  Level FlightAware
10:35AM 51.0280 13.0120 106° East 481 554 35,000  Level FlightAware
10:36AM 51.0010 13.1550 107° East 482 555 35,000  Level FlightAware
10:37AM 50.9720 13.3060 107° East 482 555 35,000  Level FlightAware
10:37AM 50.9470 13.4500 105° East 482 555 35,000  Level FlightAware
10:38AM 50.9330 13.5850 99° East 484 557 35,000  Level FlightAware
10:39AM 50.9230 13.7410 96° East 483 556 35,000  Level FlightAware
10:39AM 50.9130 13.8800 96° East 482 555 35,000  Level FlightAware
10:40AM 50.8890 14.0360 104° East 476 548 35,000  Level FlightAware
10:41AM 50.8550 14.1650 113° Southeast 471 542 35,000  Level FlightAware
10:41AM 50.8070 14.2660 127° Southeast 468 539 35,000  Level FlightAware
10:42AM 50.7410 14.3920 130° Southeast 469 540 35,000  Level FlightAware
10:43AM 50.6860 14.5000 129° Southeast 466 536 35,000  Level FlightAware
10:44AM 50.6160 14.6100 135° Southeast 461 531 35,000  Level FlightAware
10:44AM 50.5640 14.7130 128° Southeast 463 533 35,000  Level FlightAware
10:45AM 50.5130 14.8340 124° Southeast 457 526 35,000  Level FlightAware
10:46AM 50.4670 14.9480 122° Southeast 456 525 35,000  Level FlightAware
10:46AM 50.4140 15.0800 122° Southeast 457 526 35,000  Level FlightAware
10:47AM 50.3730 15.1830 122° Southeast 455 524 35,000  Level FlightAware
10:48AM 50.3250 15.3010 122° Southeast 454 522 35,000  Level FlightAware
10:49AM 50.2760 15.4230 122° Southeast 454 522 35,000  Level FlightAware
10:49AM 50.2310 15.5320 123° Southeast 453 521 35,000  Level FlightAware
10:50AM 50.1860 15.6430 122° Southeast 453 521 35,000  Level FlightAware
10:51AM 50.1360 15.7660 122° Southeast 453 521 35,000  Level FlightAware
10:51AM 50.0930 15.8710 123° Southeast 453 521 35,000  Level FlightAware
10:52AM 50.0410 15.9950 123° Southeast 455 524 35,000  Level FlightAware
10:53AM 49.9960 16.1040 123° Southeast 454 522 35,000  Level FlightAware
10:53AM 49.9480 16.2180 123° Southeast 454 522 35,000  Level FlightAware
10:54AM 49.8950 16.3460 123° Southeast 455 524 35,000  Level FlightAware
10:55AM 49.8520 16.4480 123° Southeast 454 522 35,000  Level FlightAware
10:56AM 49.7980 16.5750 123° Southeast 452 520 35,000  Level FlightAware
10:56AM 49.7520 16.6820 124° Southeast 452 520 35,000  Level FlightAware
10:57AM 49.7000 16.8040 123° Southeast 453 521 35,000  Level FlightAware
10:58AM 49.6540 16.9120 123° Southeast 454 522 35,000  Level FlightAware
10:58AM 49.6090 17.0160 124° Southeast 455 524 35,000  Level FlightAware
10:59AM 49.5570 17.1380 123° Southeast 452 520 35,000  Level FlightAware
11:00AM 49.5110 17.2440 124° Southeast 452 520 35,000  Level FlightAware
11:00AM 49.4600 17.3610 124° Southeast 452 520 35,000  Level FlightAware
11:01AM 49.4130 17.4680 124° Southeast 452 520 35,000  Level FlightAware
11:02AM 49.3670 17.5720 124° Southeast 450 518 35,000  Level FlightAware
11:03AM 49.3180 17.6950 121° Southeast 451 519 35,000  Level FlightAware
11:03AM 49.2780 17.8060 119° Southeast 452 520 35,000  Level FlightAware
11:04AM 49.2350 17.9240 119° Southeast 454 522 35,000  Level FlightAware
11:05AM 49.1890 18.0480 120° Southeast 455 524 35,000  Level FlightAware
11:05AM 49.1480 18.1610 119° Southeast 457 526 35,000  Level FlightAware
11:06AM 49.1020 18.2850 120° Southeast 456 525 35,000  Level FlightAware
11:07AM 49.0600 18.3980 120° Southeast 457 526 35,000  Level FlightAware
11:07AM 49.0190 18.5080 120° Southeast 459 528 35,000  Level FlightAware
11:08AM 48.9710 18.6370 120° Southeast 458 527 35,000  Level FlightAware
11:09AM 48.9310 18.7430 120° Southeast 458 527 35,000  Level FlightAware
11:10AM 48.8820 18.8720 120° Southeast 459 528 35,000  Level FlightAware
11:10AM 48.8400 18.9820 120° Southeast 459 528 35,000  Level FlightAware
11:11AM 48.7940 19.1010 120° Southeast 459 528 35,000  Level FlightAware
11:12AM 48.7470 19.2230 120° Southeast 459 528 35,000  Level FlightAware
11:12AM 48.7050 19.3320 120° Southeast 459 528 35,000  Level FlightAware
11:13AM 48.6630 19.4420 120° Southeast 459 528 35,000  Level FlightAware
11:14AM 48.6150 19.5630 121° Southeast 459 528 35,000  Level FlightAware
11:14AM 48.5720 19.6750 120° Southeast 459 528 35,000  Level FlightAware
11:15AM 48.5220 19.8010 121° Southeast 459 528 35,000  Level FlightAware
11:16AM 48.4790 19.9090 121° Southeast 461 531 35,000  Level FlightAware
11:17AM 48.4300 20.0340 121° Southeast 460 529 35,000  Level FlightAware
11:17AM 48.3860 20.1440 121° Southeast 461 531 35,000  Level FlightAware
11:18AM 48.3500 20.2360 120° Southeast 461 531 35,000  Level FlightAware
11:19AM 48.2990 20.3790 118° Southeast 461 531 35,000  Level FlightAware
11:19AM 48.2660 20.5000 112° Southeast 461 531 35,000  Level FlightAware
11:20AM 48.2280 20.6370 113° Southeast 460 529 35,000  Level FlightAware
11:21AM 48.1960 20.7540 112° Southeast 461 531 35,000  Level FlightAware
11:21AM 48.1640 20.8730 112° Southeast 461 531 35,000  Level FlightAware
11:22AM 48.1270 21.0050 113° Southeast 461 531 35,000  Level FlightAware
11:23AM 48.0950 21.1210 112° Southeast 463 533 35,000  Level FlightAware
11:24AM 48.0580 21.2500 113° Southeast 464 534 35,000  Level FlightAware
11:24AM 48.0250 21.3710 112° Southeast 461 531 35,000  Level FlightAware
11:25AM 47.9940 21.4860 112° Southeast 460 529 35,000  Level FlightAware
11:26AM 47.9580 21.6160 112° Southeast 458 527 35,000  Level FlightAware
11:26AM 47.9130 21.7240 122° Southeast 456 525 35,000  Level FlightAware
11:27AM 47.8530 21.8330 129° Southeast 454 522 35,000  Level FlightAware
11:28AM 47.8000 21.9300 129° Southeast 454 522 35,000  Level FlightAware
11:28AM 47.7510 22.0190 129° Southeast 454 522 35,000  Level FlightAware
11:29AM 47.6870 22.1330 130° Southeast 453 521 35,000  Level FlightAware
11:31AM 47.5570 22.3740 129° Southeast 451 519 35,000  Level FlightAware
11:33AM 47.4170 22.6350 128° Southeast 452 520 35,000  Level FlightAware
11:33AM 47.3640 22.7330 129° Southeast 452 520 35,000  Level FlightAware
11:34AM 47.3120 22.8300 128° Southeast 451 519 35,000  Level FlightAware
11:35AM 47.2550 22.9340 129° Southeast 450 518 35,000  Level FlightAware
11:35AM 47.2040 23.0280 129° Southeast 450 518 35,000  Level FlightAware
11:36AM 47.1440 23.1390 128° Southeast 450 518 35,000  Level FlightAware
11:37AM 47.1010 23.2170 129° Southeast 450 518 35,000  Level FlightAware
11:38AM 47.0380 23.3310 129° Southeast 449 517 35,000  Level FlightAware
11:38AM 46.9830 23.4310 129° Southeast 450 518 35,000  Level FlightAware
11:39AM 46.9390 23.5110 129° Southeast 451 519 35,000  Level FlightAware
11:40AM 46.8700 23.6350 129° Southeast 451 519 35,000  Level FlightAware
11:40AM 46.8170 23.7290 129° Southeast 448 516 35,000  Level FlightAware
11:41AM 46.7580 23.8350 129° Southeast 447 514 35,000  Level FlightAware
11:42AM 46.7070 23.9250 130° Southeast 445 512 35,000  Level FlightAware
11:42AM 46.6500 24.0270 129° Southeast 448 516 35,000  Level FlightAware
11:43AM 46.5970 24.1200 130° Southeast 450 518 35,000  Level FlightAware
11:44AM 46.5480 24.2070 129° Southeast 450 518 35,000  Level FlightAware
11:45AM 46.4820 24.3220 130° Southeast 453 521 35,000  Level FlightAware
11:45AM 46.4290 24.4140 130° Southeast 455 524 35,000  Level FlightAware
11:46AM 46.3750 24.5090 129° Southeast 458 527 35,000  Level FlightAware
11:47AM 46.3120 24.6180 130° Southeast 461 531 35,000  Level FlightAware
11:48AM 46.2350 24.7510 130° Southeast 465 535 35,000  Level FlightAware
11:48AM 46.1640 24.8730 130° Southeast 466 536 35,000  Level FlightAware
11:49AM 46.1000 24.9820 130° Southeast 465 535 35,000  Level FlightAware
11:50AM 46.0480 25.0680 131° Southeast 462 532 35,000  Level FlightAware
11:51AM 45.9850 25.1730 131° Southeast 461 531 35,000  Level FlightAware
11:51AM 45.9270 25.2690 131° Southeast 460 529 35,000  Level FlightAware
11:52AM 45.8680 25.3650 131° Southeast 462 532 35,000  Level FlightAware
11:53AM 45.7910 25.4920 131° Southeast 463 533 35,000  Level FlightAware
11:54AM 45.7090 25.6260 131° Southeast 458 527 35,000  Level FlightAware
11:55AM 45.6520 25.7200 131° Southeast 461 531 35,000  Level FlightAware
11:55AM 45.6020 25.7990 132° Southeast 462 532 35,000  Level FlightAware
11:56AM 45.5190 25.9340 131° Southeast 461 531 35,000  Level FlightAware
11:57AM 45.4540 26.0380 132° Southeast 464 534 35,000  Level FlightAware
11:57AM 45.4040 26.1190 131° Southeast 464 534 35,000  Level FlightAware
11:58AM 45.3370 26.2260 132° Southeast 466 536 35,000  Level FlightAware
11:59AM 45.2830 26.3110 132° Southeast 466 536 35,000  Level FlightAware
12:00PM 45.2210 26.4100 132° Southeast 468 539 35,000  Level FlightAware
12:00PM 45.1550 26.5140 132° Southeast 471 542 35,000  Level FlightAware
12:01PM 45.0950 26.6080 132° Southeast 470 541 35,000  Level FlightAware
12:02PM 45.0350 26.7030 132° Southeast 470 541 35,000  Level FlightAware
12:02PM 44.9740 26.7990 132° Southeast 472 543 35,000  Level FlightAware
12:03PM 44.9040 26.9080 132° Southeast 475 547 35,000  Level FlightAware
12:04PM 44.8310 27.0210 132° Southeast 475 547 35,000  Level FlightAware
12:05PM 44.7560 27.1370 132° Southeast 477 549 35,000  Level FlightAware
12:06PM 44.6630 27.2800 132° Southeast 476 548 35,000  Level FlightAware
12:07PM 44.5590 27.4390 133° Southeast 474 545 35,000  Level FlightAware
12:08PM 44.4980 27.5310 133° Southeast 474 545 35,000  Level FlightAware
12:09PM 44.4310 27.6340 132° Southeast 477 549 35,000  Level FlightAware
12:11PM 44.3045 27.9240 121° Southeast  Level Estimated
12:11PM 44.2480 27.9100 121° Southeast 481 554 35,000  Level FlightAware
12:11PM 44.1950 27.9880 133° Southeast 481 554 35,000  Level FlightAware
12:12PM 44.1210 28.0990 133° Southeast 482 555 35,000  Level FlightAware
12:13PM 44.0570 28.1940 133° Southeast 484 557 35,000  Level FlightAware
12:13PM 43.9890 28.2950 133° Southeast 485 558 35,000  Level FlightAware
12:14PM 43.9110 28.4100 133° Southeast 484 557 35,000  Level FlightAware
12:15PM 43.8200 28.5440 133° Southeast 483 556 35,000  Level FlightAware
12:16PM 43.7560 28.6380 133° Southeast 483 556 35,000  Level FlightAware
12:17PM 43.7000 28.7200 133° Southeast 483 556 35,000  Level FlightAware
12:18PM 43.5530 28.9330 134° Southeast 490 564 35,000  Level FlightAware
12:19PM 43.4730 29.0500 133° Southeast 492 566 35,000  Level FlightAware
12:22PM 43.3121 29.4060 122° Southeast  Level Estimated
12:23PM 43.2466 29.5497 122° Southeast  Level Estimated
12:23PM 43.1060 29.5730 122° Southeast 495 570 35,000  Level FlightAware
12:25PM 42.9240 29.8290 134° Southeast 495 570 35,000  Level FlightAware
12:25PM 42.8630 29.9140 134° Southeast 495 570 35,000  Level FlightAware
12:26PM 42.7710 30.0420 134° Southeast 35,000  Level FlightAware
12:27PM 42.7200 30.1140 134° Southeast 35,000  Level FlightAware
12:28PM 42.6480 30.2120 135° Southeast 496 571 35,000  Level FlightAware
12:28PM 42.5810 30.3330 127° Southeast 503 579 35,000  Level FlightAware
12:29PM 42.5350 30.4420 120° Southeast 504 580 35,000  Level FlightAware
12:30PM 42.4960 30.5390 119° Southeast 504 580 35,000  Level FlightAware
12:30PM 42.4410 30.6650 121° Southeast 502 578 35,000  Level FlightAware
12:31PM 42.3830 30.8010 120° Southeast 500 575 35,000  Level FlightAware
12:32PM 42.3360 30.9080 121° Southeast 499 574 35,000  Level FlightAware
12:33PM 42.2900 31.0140 120° Southeast 499 574 35,000  Level FlightAware
12:33PM 42.2460 31.1160 120° Southeast 497 572 35,000  Level FlightAware
12:34PM 42.1770 31.2770 120° Southeast 501 577 35,000  Level FlightAware
12:35PM 42.1270 31.3900 121° Southeast 504 580 35,000  Level FlightAware
12:36PM 42.0800 31.4980 120° Southeast 504 580 35,000  Level FlightAware
12:36PM 42.0410 31.5910 119° Southeast 504 580 35,000  Level FlightAware
12:37PM 42.0010 31.6830 120° Southeast 504 580 35,000  Level FlightAware
12:38PM 41.9620 31.7760 119° Southeast 504 580 35,000  Level FlightAware
12:38PM 41.9220 31.8680 120° Southeast 504 580 35,000  Level FlightAware
12:39PM 41.8370 32.0440 123° Southeast 500 575 35,000  Level FlightAware
12:40PM 41.7850 32.1620 121° Southeast 500 575 35,000  Level FlightAware
12:41PM 41.7180 32.3140 121° Southeast 499 574 35,000  Level FlightAware
12:42PM 41.6270 32.5490 117° Southeast 499 574 35,000  Level FlightAware
12:43PM 41.5840 32.6580 118° Southeast 499 574 35,000  Level FlightAware
12:44PM 41.5210 32.8200 117° Southeast 499 574 35,000  Level FlightAware
12:44PM 41.4840 32.9160 117° Southeast 497 572 35,000  Level FlightAware
12:45PM 41.4150 33.0920 118° Southeast 497 572 35,000  Level FlightAware
12:46PM 41.3470 33.2670 117° Southeast 497 572 35,000  Level FlightAware
12:48PM 41.2400 33.5390 118° Southeast 498 573 35,000  Level FlightAware
12:49PM 41.1810 33.6850 118° Southeast 497 572 35,000  Level FlightAware
12:50PM 41.1170 33.8420 118° Southeast 495 570 35,000  Level FlightAware
12:51PM 41.0720 33.9520 118° Southeast 494 568 35,000  Level FlightAware
12:51PM 41.0220 34.0760 118° Southeast 493 567 35,000  Level FlightAware
12:52PM 41.0180 34.0850 120° Southeast 492 566 35,000  Level FlightAware
12:53PM 41.0220 34.0760 301° West 490 564 35,000  Level FlightAware
12:53PM 40.9860 34.1660 118° Southeast 490 564 35,000  Level FlightAware
12:54PM 40.9490 34.2560 119° Southeast 490 564 35,000  Level FlightAware
12:55PM 40.9040 34.3690 118° Southeast 490 564 35,000  Level FlightAware
12:56PM 40.8680 34.4590 118° Southeast 490 564 35,000  Level FlightAware
12:56PM 40.8320 34.5490 118° Southeast 490 564 35,000  Level FlightAware
12:57PM 40.7950 34.6390 118° Southeast 490 564 35,000  Level FlightAware
12:58PM 40.7500 34.7510 118° Southeast 490 564 35,000  Level FlightAware
12:58PM 40.7140 34.8410 118° Southeast 490 564 35,000  Level FlightAware
12:59PM 40.6780 34.9300 118° Southeast 490 564 35,000  Level FlightAware
01:00PM 40.6420 35.0200 118° Southeast 490 564 35,000  Level FlightAware
01:00PM 40.6050 35.1100 118° Southeast 490 564 35,000  Level FlightAware
01:01PM 40.5600 35.2220 118° Southeast 490 564 35,000  Level FlightAware
01:02PM 40.5240 35.3110 118° Southeast 490 564 35,000  Level FlightAware
01:05PM 40.3371 35.6440 126° Southeast  Level Estimated
01:06PM 40.2636 35.7741 127° Southeast  Level Estimated
01:07PM 40.1899 35.9039 127° Southeast  Level Estimated
01:08PM 40.1161 36.0334 127° Southeast  Level Estimated
01:09PM 40.0421 36.1626 127° Southeast  Level Estimated
01:10PM 39.9680 36.2916 127° Southeast  Level Estimated
01:11PM 39.8937 36.4203 127° Southeast  Level Estimated
01:12PM 39.8193 36.5487 127° Southeast  Level Estimated
01:13PM 39.7448 36.6768 127° Southeast  Level Estimated
01:14PM 39.6701 36.8046 127° Southeast  Level Estimated
01:15PM 39.5953 36.9322 127° Southeast  Level Estimated
01:16PM 39.5203 37.0595 127° Southeast  Level Estimated
01:17PM 39.4452 37.1865 127° Southeast  Level Estimated
01:18PM 39.3700 37.3132 127° Southeast  Level Estimated
01:19PM 39.2946 37.4397 128° Southeast  Level Estimated
01:20PM 39.2191 37.5659 128° Southeast  Level Estimated
01:21PM 39.1435 37.6918 128° Southeast  Level Estimated
01:22PM 39.0677 37.8175 128° Southeast  Level Estimated
01:23PM 38.9917 37.9429 128° Southeast  Level Estimated
01:24PM 38.9157 38.0680 128° Southeast  Level Estimated
01:25PM 38.8395 38.1928 128° Southeast  Level Estimated
01:26PM 38.7632 38.3174 128° Southeast  Level Estimated
01:27PM 38.6867 38.4417 128° Southeast  Level Estimated
01:28PM 38.6102 38.5658 128° Southeast  Level Estimated
01:29PM 38.5335 38.6895 128° Southeast  Level Estimated
01:30PM 38.4566 38.8131 128° Southeast  Level Estimated
01:31PM 38.3796 38.9363 129° Southeast  Level Estimated
01:32PM 38.3025 39.0593 129° Southeast  Level Estimated
01:33PM 38.2253 39.1820 129° Southeast  Level Estimated
01:34PM 38.1479 39.3045 129° Southeast  Level Estimated
01:35PM 38.0705 39.4267 129° Southeast  Level Estimated
01:35PM 37.4410 40.6740 129° Southeast 546 628 35,000  Level FlightAware
01:35PM 37.3830 40.7620 130° Southeast 545 627 35,000  Level FlightAware
01:36PM 37.9929 39.5487 129° Southeast  Level Estimated
01:36PM 37.3210 40.8590 129° Southeast 545 627 35,000  Level FlightAware
01:37PM 37.2410 40.9770 130° Southeast 541 623 35,000  Level FlightAware
01:38PM 37.1680 41.0860 130° Southeast 540 621 35,000  Level FlightAware
01:38PM 37.0910 41.1670 140° Southeast 531 611 35,000  Level FlightAware
01:39PM 37.0000 41.2320 150° Southeast 514 592 35,000  Level FlightAware
01:40PM 36.9070 41.2750 160° South 510 587 35,000  Level FlightAware
01:41PM 36.8070 41.3200 160° South 512 589 35,000  Level FlightAware
01:41PM 36.7200 41.3600 160° South 514 592 35,000  Level FlightAware
01:42PM 36.6290 41.3960 162° South 509 586 35,000  Level FlightAware
01:43PM 36.5290 41.4340 163° South 510 587 35,000  Level FlightAware
01:43PM 36.4390 41.4700 162° South 511 588 35,000  Level FlightAware
01:44PM 36.3430 41.5110 161° South 511 588 35,000  Level FlightAware
01:45PM 36.2470 41.5470 163° South 510 587 35,000  Level FlightAware
01:45PM 36.1570 41.5840 162° South 517 595 35,000  Level FlightAware
01:46PM 36.0680 41.6590 146° Southeast 532 612 35,000  Level FlightAware
01:47PM 36.0020 41.7550 130° Southeast 537 618 35,000  Level FlightAware
01:47PM 35.9380 41.8510 129° Southeast 536 617 35,000  Level FlightAware
01:48PM 35.8710 41.9540 129° Southeast 536 617 35,000  Level FlightAware
01:49PM 35.7980 42.0630 130° Southeast 533 613 35,000  Level FlightAware
01:50PM 35.7340 42.1590 129° Southeast 535 616 35,000  Level FlightAware
01:50PM 35.6730 42.2510 129° Southeast 534 615 35,000  Level FlightAware
01:51PM 35.6090 42.3460 130° Southeast 537 618 35,000  Level FlightAware
01:52PM 35.5400 42.4480 130° Southeast 539 620 35,000  Level FlightAware
01:52PM 35.4760 42.5440 129° Southeast 540 621 35,000  Level FlightAware
01:53PM 35.4020 42.6530 130° Southeast 542 624 35,000  Level FlightAware
01:54PM 35.3410 42.7430 130° Southeast 541 623 35,000  Level FlightAware
01:55PM 35.2680 42.8500 130° Southeast 540 621 35,000  Level FlightAware
01:55PM 35.2050 42.9430 130° Southeast 540 621 35,000  Level FlightAware
01:56PM 35.1400 43.0380 130° Southeast 540 621 35,000  Level FlightAware
01:57PM 35.0690 43.1410 130° Southeast 540 621 35,000  Level FlightAware
01:57PM 35.0030 43.2380 130° Southeast 540 621 35,000  Level FlightAware
01:58PM 34.9380 43.3320 130° Southeast 541 623 35,000  Level FlightAware
01:59PM 34.8680 43.4330 130° Southeast 542 624 35,000  Level FlightAware
01:59PM 34.8030 43.5270 130° Southeast 542 624 35,000  Level FlightAware
02:00PM 34.7300 43.6330 130° Southeast 541 623 35,000  Level FlightAware
02:01PM 34.6650 43.7260 130° Southeast 542 624 35,000  Level FlightAware
02:02PM 34.5920 43.8300 130° Southeast 542 624 35,000 60 Level FlightAware
02:02PM 34.5280 43.9210 130° Southeast 540 621 35,100 420 Climbing FlightAware
02:03PM 34.4630 44.0130 131° Southeast 534 615 35,600 720 Climbing FlightAware
02:04PM 34.3930 44.1130 130° Southeast 524 603 36,200 840 Climbing FlightAware
02:04PM 34.3280 44.2050 131° Southeast 510 587 36,800 600 Climbing FlightAware
02:05PM 34.2680 44.2890 131° Southeast 504 580 37,000 120 Climbing FlightAware
02:06PM 34.2000 44.3850 131° Southeast 504 580 37,000  Level FlightAware
02:06PM 34.1390 44.4710 131° Southeast 502 578 37,000  Level FlightAware
02:07PM 34.0730 44.5630 131° Southeast 499 574 37,000  Level FlightAware
02:08PM 34.0120 44.6490 131° Southeast 497 572 37,000  Level FlightAware
02:08PM 33.9510 44.7330 131° Southeast 499 574 37,000  Level FlightAware
02:09PM 33.8860 44.8240 131° Southeast 501 577 37,000  Level FlightAware
02:10PM 33.8240 44.9090 131° Southeast 504 580 37,000  Level FlightAware
02:11PM 33.7540 45.0070 131° Southeast 509 586 37,000  Level FlightAware
02:12PM 33.6530 45.0870 147° Southeast 505 581 37,000  Level FlightAware
02:12PM 33.5670 45.1270 159° South 503 579 37,000  Level FlightAware
02:13PM 33.4620 45.1760 159° South 505 581 37,000  Level FlightAware
02:14PM 33.3710 45.2170 159° South 507 583 37,000  Level FlightAware
02:14PM 33.2840 45.2570 159° South 508 585 37,000  Level FlightAware
02:15PM 33.1890 45.3050 157° South 505 581 37,000  Level FlightAware
02:16PM 33.1060 45.3470 157° South 503 579 37,000  Level FlightAware
02:16PM 33.0060 45.4080 153° Southeast 511 588 37,000  Level FlightAware
02:17PM 32.9350 45.4690 144° Southeast 514 592 37,000  Level FlightAware
02:18PM 32.8710 45.5270 143° Southeast 514 592 37,000  Level FlightAware
02:18PM 32.8060 45.5850 143° Southeast 514 592 37,000  Level FlightAware
02:19PM 32.7410 45.6430 143° Southeast 514 592 37,000  Level FlightAware
02:20PM 32.6610 45.7150 143° Southeast 514 592 37,000  Level FlightAware
02:21PM 32.5960 45.7730 143° Southeast 514 592 37,000  Level FlightAware
02:21PM 32.5320 45.8310 143° Southeast 514 592 37,000  Level FlightAware
02:22PM 32.4670 45.8880 143° Southeast 514 592 37,000  Level FlightAware
02:23PM 32.3860 45.9600 143° Southeast 514 592 37,000  Level FlightAware
02:23PM 32.3220 46.0180 143° Southeast 514 592 37,000  Level FlightAware
02:24PM 32.2570 46.0750 143° Southeast 514 592 37,000  Level FlightAware
02:25PM 32.1930 46.1330 143° Southeast 514 592 37,000  Level FlightAware
02:25PM 32.1280 46.1900 143° Southeast 514 592 37,000  Level FlightAware
02:26PM 32.0470 46.2620 143° Southeast 514 592 37,000  Level FlightAware
02:29PM 31.8778 46.5157 128° Southeast  Level Estimated
02:30PM 31.8013 46.6298 128° Southeast  Level Estimated
02:31PM 31.7247 46.7437 128° Southeast  Level Estimated
02:32PM 31.6480 46.8574 128° Southeast  Level Estimated
02:33PM 31.5712 46.9710 128° Southeast  Level Estimated
02:34PM 31.4943 47.0844 128° Southeast  Level Estimated
02:35PM 31.4173 47.1976 129° Southeast  Level Estimated
02:36PM 31.3402 47.3106 129° Southeast  Level Estimated
02:37PM 31.2630 47.4234 129° Southeast  Level Estimated
02:38PM 31.1857 47.5360 129° Southeast  Level Estimated
02:38PM 30.5580 47.7940 129° Southeast 533 613 37,000  Level FlightAware
02:39PM 31.1084 47.6484 129° Southeast  Level Estimated
02:39PM 30.4650 47.8900 138° Southeast 531 611 37,000  Level FlightAware
02:40PM 30.3360 48.0240 138° Southeast 534 615 37,000  Level FlightAware
02:41PM 30.2760 48.0850 139° Southeast 535 616 37,000  Level FlightAware
02:42PM 30.1600 48.2040 138° Southeast 529 609 37,000  Level FlightAware
02:43PM 30.0360 48.3320 138° Southeast 529 609 37,000  Level FlightAware
02:44PM 29.9510 48.4180 139° Southeast 528 608 37,000  Level FlightAware
02:45PM 29.8720 48.4950 140° Southeast 527 606 37,000  Level FlightAware
02:45PM 29.7890 48.5620 145° Southeast 525 604 37,000  Level FlightAware
02:46PM 29.7130 48.6200 146° Southeast 525 604 37,000  Level FlightAware
02:47PM 29.6180 48.6930 146° Southeast 523 602 37,000  Level FlightAware
02:47PM 29.5450 48.7490 146° Southeast 522 601 37,000  Level FlightAware
02:48PM 29.4490 48.8220 146° Southeast 521 600 37,000  Level FlightAware
02:49PM 29.3660 48.8850 147° Southeast 522 601 37,000  Level FlightAware
02:50PM 29.2910 48.9420 146° Southeast 520 598 37,000  Level FlightAware
02:51PM 29.1740 49.0310 146° Southeast 520 598 37,000  Level FlightAware
02:51PM 29.1060 49.0830 146° Southeast 520 598 37,000  Level FlightAware
02:52PM 28.9990 49.1620 147° Southeast 525 604 37,000  Level FlightAware
02:53PM 28.9270 49.2180 146° Southeast 525 604 37,000  Level FlightAware
02:53PM 28.8580 49.2700 147° Southeast 525 604 37,000  Level FlightAware
02:54PM 28.7480 49.3500 147° Southeast 37,000  Level FlightAware
02:56PM 28.5430 49.5210 144° Southeast 523 602 37,000  Level FlightAware
02:56PM 28.4990 49.5650 139° Southeast 526 605 37,000  Level FlightAware
02:57PM 28.3990 49.6670 138° Southeast 526 605 37,000  Level FlightAware
02:58PM 28.2940 49.7610 142° Southeast 527 606 37,000  Level FlightAware
02:59PM 28.2300 49.8140 144° Southeast 527 606 37,000  Level FlightAware
02:59PM 28.1630 49.8690 144° Southeast 527 606 37,000  Level FlightAware
03:00PM 28.0390 49.9610 147° Southeast 527 606 37,000  Level FlightAware
03:01PM 27.9710 50.0150 145° Southeast 527 606 37,000  Level FlightAware
03:01PM 27.9030 50.0690 145° Southeast 527 606 37,000  Level FlightAware
03:02PM 27.8350 50.1220 145° Southeast 527 606 37,000  Level FlightAware
03:03PM 27.7680 50.1760 145° Southeast 527 606 37,000  Level FlightAware
03:04PM 27.6830 50.2430 145° Southeast 527 606 37,000  Level FlightAware
03:04PM 27.6150 50.2970 145° Southeast 527 606 37,000  Level FlightAware
03:05PM 27.5470 50.3510 145° Southeast 527 606 37,000  Level FlightAware
03:06PM 27.4790 50.4040 145° Southeast 527 606 37,000  Level FlightAware
03:06PM 27.4110 50.4580 145° Southeast 527 606 37,000  Level FlightAware
03:07PM 27.1580 50.6410 147° Southeast 546 628 37,000  Level FlightAware
03:08PM 27.0830 50.6980 146° Southeast 545 627 37,000  Level FlightAware
03:09PM 26.9840 50.7870 141° Southeast 550 633 37,000  Level FlightAware
03:09PM 26.9340 50.8900 119° Southeast 553 636 37,000  Level FlightAware
03:10PM 26.8950 50.9950 113° Southeast 556 640 37,000  Level FlightAware
03:11PM 26.8490 51.1220 112° Southeast 560 644 37,000  Level FlightAware
03:11PM 26.8090 51.2270 113° Southeast 551 634 37,000  Level FlightAware
03:12PM 26.7610 51.3430 115° Southeast 531 611 37,000  Level FlightAware
03:13PM 26.7210 51.4370 115° Southeast 526 605 37,000  Level FlightAware
03:13PM 26.6800 51.5340 115° Southeast 527 606 37,000  Level FlightAware
03:14PM 26.6170 51.6830 115° Southeast 527 606 37,000  Level FlightAware
03:15PM 26.5740 51.7850 115° Southeast 525 604 37,000  Level FlightAware
03:16PM 26.5340 51.8820 115° Southeast 525 604 37,000  Level FlightAware
03:16PM 26.4870 51.9930 115° Southeast 520 598 37,000 -180 Level FlightAware
03:17PM 26.4480 52.0840 116° Southeast 526 605 36,800 -600 Descending FlightAware
03:19PM 26.3330 52.3560 115° Southeast 492 566 35,500 -900 Descending FlightAware
03:20PM 26.2650 52.5120 116° Southeast 488 562 34,200 -1,200 Descending FlightAware
03:21PM 26.2010 52.6630 115° Southeast 469 540 32,900 -1,200 Descending FlightAware
03:22PM 26.1680 52.7400 116° Southeast 468 539 32,200 -1,140 Descending FlightAware
03:23PM 26.1280 52.8310 116° Southeast 466 536 31,400 -1,260 Descending FlightAware
03:24PM 26.0530 53.0060 115° Southeast 446 513 29,700 -960 Descending FlightAware
03:25PM 25.9930 53.1440 116° Southeast 422 486 29,000 -300 Descending FlightAware
03:26PM 25.9280 53.2910 116° Southeast 419 482 29,000  Level FlightAware
03:27PM 25.8880 53.3930 114° Southeast 425 489 29,000  Level FlightAware
03:28PM 25.8650 53.4680 109° East 424 488 29,000  Level FlightAware
03:29PM 25.8350 53.5660 109° East 427 491 29,000 -120 Level FlightAware
03:29PM 25.8100 53.6520 108° East 427 491 28,900 -480 Descending FlightAware
03:30PM 25.7840 53.7350 109° East 425 489 28,400 -960 Descending FlightAware
03:31PM 25.7560 53.8280 108° East 420 483 27,600 -1,140 Descending FlightAware
03:31PM 25.7320 53.9070 109° East 410 472 26,800 -1,380 Descending FlightAware
03:32PM 25.7070 53.9870 109° East 409 471 25,800 -1,500 Descending FlightAware
03:33PM 25.6800 54.0770 108° East 405 466 24,700 -1,440 Descending FlightAware
03:33PM 25.6570 54.1540 108° East 396 456 23,800 -1,200 Descending FlightAware
03:34PM 25.6350 54.2250 109° East 381 438 23,100 -1,140 Descending FlightAware
03:35PM 25.6160 54.3130 103° East 368 423 22,200 -1,020 Descending FlightAware
03:36PM 25.6130 54.3820 93° East 360 414 21,700 -720 Descending FlightAware
03:36PM 25.6100 54.4700 92° East 357 411 21,200 -540 Descending FlightAware
03:37PM 25.6070 54.5420 93° East 355 409 21,000 -240 Descending FlightAware
03:38PM 25.6040 54.6150 93° East 361 415 20,900 -480 Descending FlightAware
03:38PM 25.6010 54.6990 92° East 359 413 20,400 -660 Descending FlightAware
03:39PM 25.6150 54.7660 77° East 352 405 20,000 -480 Descending FlightAware
03:39PM 25.6280 54.7780 40° Northeast 345 397 20,000 -240 Level FlightAware
03:40PM 25.6570 54.7880 17° North 322 371 19,900 -720 Descending FlightAware
03:40PM 25.6920 54.7770 344° North 294 338 19,500 -480 Descending FlightAware
03:43PM 25.4935 55.0447 129° Southeast  Level Estimated
03:44PM 25.4155 55.1495 129° Southeast  Level Estimated
03:45PM 25.3374 55.2541 130° Southeast  Level Estimated
03:46PM 25.2593 55.3586 130° Southeast  Level Estimated
03:46PM 25.5990 54.7150 130° Southeast 324 373 17,000  Level FlightAware
03:47PM 25.6230 54.7810 68° East 309 356 16,500 -300 Descending FlightAware
03:49PM 25.4969 54.9817 125° Southeast  Level Estimated
03:50PM 25.4267 55.0930 125° Southeast  Level Estimated
03:50PM 25.7460 54.6310 125° Southeast 260 299 16,000  Level FlightAware
03:51PM 25.7490 54.4990 126° Southeast 272 313 15,900 -180 Descending FlightAware
03:52PM 25.6027 54.8461 126° Southeast  Level Estimated
03:52PM 25.7270 54.4860 208° Southwest 288 331 15,700  Level FlightAware
03:52PM 25.7120 54.4840 187° South 287 330 15,500 -1,200 Descending FlightAware
03:52PM 25.6860 54.4920 165° South 303 349 15,100 -420 Descending FlightAware
03:53PM 25.6450 54.5730 119° Southeast 304 350 15,000 -60 Descending FlightAware
03:54PM 25.6200 54.6490 110° East 305 351 15,000 -240 Level FlightAware
03:56PM 25.6700 54.7720 66° East 273 314 14,400 -360 Descending FlightAware
03:56PM 25.6800 54.7630 321° Northwest 268 308 14,300 -900 Descending FlightAware
03:57PM 25.7030 54.7110 296° West 256 295 13,600 -1,020 Descending FlightAware
03:58PM 25.7230 54.6540 291° West 254 292 12,800 -1,080 Descending FlightAware
03:58PM 25.7190 54.6150 264° West 253 291 12,200 -1,020 Descending FlightAware
03:59PM 25.6960 54.5950 218° Southwest 269 310 11,900 -1,080 Descending FlightAware
03:59PM 25.6780 54.5910 191° South 289 333 11,600 -1,080 Descending FlightAware
03:59PM 25.6480 54.6060 156° South 297 342 11,200 -900 Descending FlightAware
04:00PM 25.6360 54.6270 122° Southeast 302 348 11,000 -780 Descending FlightAware
04:00PM 25.6110 54.6830 116° Southeast 297 342 10,500 -540 Descending FlightAware
04:01PM 25.5950 54.7500 105° East 299 344 10,300 -300 Descending FlightAware
04:02PM 25.5880 54.8100 97° East 299 344 10,100 -180 Descending FlightAware
04:02PM 25.5800 54.8680 99° East 300 345 10,100  Level FlightAware
04:03PM 25.5700 54.9320 100° East 302 348 10,100  Level FlightAware
04:03PM 25.5600 54.9590 112° Southeast 300 345 10,100  Level FlightAware
04:04PM 25.5310 55.0110 122° Southeast 296 341 10,100  Level FlightAware
04:05PM 25.5010 55.0640 122° Southeast 294 338 10,100 -180 Level FlightAware
04:05PM 25.4810 55.1010 121° Southeast 292 336 9,900 -540 Descending FlightAware
04:06PM 25.4590 55.1410 121° Southeast 288 331 9,600 -600 Descending FlightAware
04:06PM 25.4410 55.1740 121° Southeast 291 335 9,400 -600 Descending FlightAware
04:07PM 25.4190 55.2130 122° Southeast 294 338 9,100 -600 Descending FlightAware
04:07PM 25.3990 55.2490 122° Southeast 294 338 8,800 -600 Descending FlightAware
04:08PM 25.3820 55.2800 121° Southeast 287 330 8,600 -600 Descending FlightAware
04:08PM 25.3690 55.3020 123° Southeast 283 326 8,400 -420 Descending FlightAware
04:08PM 25.3490 55.3380 122° Southeast 275 316 8,300 -360 Descending FlightAware
04:09PM 25.3320 55.3690 121° Southeast 277 319 8,100 -600 Descending FlightAware
04:09PM 25.3120 55.4050 122° Southeast 276 318 7,800 -480 Descending FlightAware
04:10PM 25.2960 55.4340 121° Southeast 272 313 7,700 -360 Descending FlightAware
04:10PM 25.2760 55.4710 121° Southeast 275 316 7,500 -480 Descending FlightAware
04:11PM 25.2590 55.5020 121° Southeast 274 315 7,300 -300 Descending FlightAware
04:11PM 25.2520 55.5150 121° Southeast 260 299 7,300 -180 Level FlightAware
04:11PM 25.2380 55.5400 122° Southeast 252 290 7,200 -180 Descending FlightAware
04:12PM 25.2250 55.5640 121° Southeast 252 290 7,200 -60 Level FlightAware
04:14PM 25.2550 55.3643 279° West  Level Estimated
04:15PM 25.2550 55.3643 211° Southwest  Level Estimated
04:15PM 25.0990 55.7890 211° Southwest 247 284 7,100  Level FlightAware
04:15PM 25.0900 55.8050 122° Southeast 245 282 7,100 -420 Level FlightAware
04:16PM 25.0690 55.8350 128° Southeast 236 272 6,800 -600 Descending FlightAware
04:16PM 25.0600 55.8390 158° South 222 255 6,700 -180 Descending FlightAware
04:16PM 25.0380 55.8470 162° South 222 255 6,700  Level FlightAware
04:18PM 25.0320 55.7620 266° West 5,800 -600 Descending FlightAware
04:18PM 25.0490 55.7310 301° West 5,500 -480 Descending FlightAware
04:21PM 25.1816 55.4952 302° West  Level Estimated